sensor_id;sensor_type;location;lat;lon;timestamp;P1;durP1;ratioP1;P2;durP2;ratioP2
77722;SDS011;67811;42.656;23.394;2024-03-08T00:01:09;6.77;;;3.07;;
77722;SDS011;67811;42.656;23.394;2024-03-08T00:05:15;6.75;;;2.63;;
77722;SDS011;67811;42.656;23.394;2024-03-08T00:09:20;7.35;;;3.05;;
77722;SDS011;67811;42.656;23.394;2024-03-08T00:13:25;6.10;;;2.63;;
77722;SDS011;67811;42.656;23.394;2024-03-08T00:17:31;7.13;;;3.07;;
77722;SDS011;67811;42.656;23.394;2024-03-08T00:21:36;6.73;;;3.07;;
77722;SDS011;67811;42.656;23.394;2024-03-08T00:25:41;6.33;;;3.60;;
77722;SDS011;67811;42.656;23.394;2024-03-08T00:29:47;6.23;;;2.60;;
77722;SDS011;67811;42.656;23.394;2024-03-08T00:33:52;7.68;;;3.00;;
77722;SDS011;67811;42.656;23.394;2024-03-08T00:37:57;6.87;;;3.00;;
77722;SDS011;67811;42.656;23.394;2024-03-08T00:42:02;8.57;;;4.47;;
77722;SDS011;67811;42.656;23.394;2024-03-08T00:46:08;7.20;;;3.00;;
77722;SDS011;67811;42.656;23.394;2024-03-08T00:50:13;7.10;;;3.60;;
77722;SDS011;67811;42.656;23.394;2024-03-08T00:54:18;6.17;;;2.97;;
77722;SDS011;67811;42.656;23.394;2024-03-08T00:58:24;6.57;;;3.30;;
77722;SDS011;67811;42.656;23.394;2024-03-08T01:02:29;5.67;;;2.90;;
77722;SDS011;67811;42.656;23.394;2024-03-08T01:06:34;6.80;;;2.97;;
77722;SDS011;67811;42.656;23.394;2024-03-08T01:10:39;6.10;;;2.93;;
77722;SDS011;67811;42.656;23.394;2024-03-08T01:14:45;6.73;;;2.70;;
77722;SDS011;67811;42.656;23.394;2024-03-08T01:18:50;6.43;;;2.83;;
77722;SDS011;67811;42.656;23.394;2024-03-08T01:22:56;3.63;;;1.70;;
77722;SDS011;67811;42.656;23.394;2024-03-08T01:27:02;3.10;;;1.47;;
77722;SDS011;67811;42.656;23.394;2024-03-08T01:31:07;2.55;;;1.10;;
77722;SDS011;67811;42.656;23.394;2024-03-08T01:35:13;2.37;;;1.20;;
77722;SDS011;67811;42.656;23.394;2024-03-08T01:39:18;2.57;;;1.27;;
77722;SDS011;67811;42.656;23.394;2024-03-08T01:43:27;2.93;;;1.13;;
77722;SDS011;67811;42.656;23.394;2024-03-08T01:47:34;3.45;;;1.40;;
77722;SDS011;67811;42.656;23.394;2024-03-08T01:51:40;3.75;;;1.42;;
77722;SDS011;67811;42.656;23.394;2024-03-08T01:55:46;3.13;;;1.10;;
77722;SDS011;67811;42.656;23.394;2024-03-08T01:59:53;4.55;;;1.38;;
77722;SDS011;67811;42.656;23.394;2024-03-08T02:03:58;3.00;;;1.15;;
77722;SDS011;67811;42.656;23.394;2024-03-08T02:08:04;2.67;;;1.23;;
77722;SDS011;67811;42.656;23.394;2024-03-08T02:12:12;3.75;;;1.33;;
77722;SDS011;67811;42.656;23.394;2024-03-08T02:16:21;3.28;;;1.25;;
77722;SDS011;67811;42.656;23.394;2024-03-08T02:20:29;2.13;;;0.93;;
77722;SDS011;67811;42.656;23.394;2024-03-08T02:24:34;3.25;;;1.63;;
77722;SDS011;67811;42.656;23.394;2024-03-08T02:28:40;2.93;;;1.33;;
77722;SDS011;67811;42.656;23.394;2024-03-08T02:32:45;3.27;;;1.20;;
77722;SDS011;67811;42.656;23.394;2024-03-08T02:36:50;2.53;;;1.23;;
77722;SDS011;67811;42.656;23.394;2024-03-08T02:40:55;2.90;;;1.20;;
77722;SDS011;67811;42.656;23.394;2024-03-08T02:45:01;3.27;;;1.20;;
77722;SDS011;67811;42.656;23.394;2024-03-08T02:49:06;3.17;;;1.43;;
77722;SDS011;67811;42.656;23.394;2024-03-08T02:53:12;2.70;;;1.30;;
77722;SDS011;67811;42.656;23.394;2024-03-08T02:57:17;2.40;;;1.20;;
77722;SDS011;67811;42.656;23.394;2024-03-08T03:01:23;3.27;;;1.43;;
77722;SDS011;67811;42.656;23.394;2024-03-08T03:05:28;2.77;;;1.07;;
77722;SDS011;67811;42.656;23.394;2024-03-08T03:09:34;3.03;;;1.33;;
77722;SDS011;67811;42.656;23.394;2024-03-08T03:13:39;4.37;;;1.43;;
77722;SDS011;67811;42.656;23.394;2024-03-08T03:17:45;2.70;;;1.20;;
77722;SDS011;67811;42.656;23.394;2024-03-08T03:21:54;2.13;;;1.13;;
77722;SDS011;67811;42.656;23.394;2024-03-08T03:26:00;3.03;;;1.30;;
77722;SDS011;67811;42.656;23.394;2024-03-08T03:30:05;1.95;;;1.05;;
77722;SDS011;67811;42.656;23.394;2024-03-08T03:34:11;1.33;;;0.80;;
77722;SDS011;67811;42.656;23.394;2024-03-08T03:38:17;2.00;;;0.93;;
77722;SDS011;67811;42.656;23.394;2024-03-08T03:42:23;2.40;;;0.82;;
77722;SDS011;67811;42.656;23.394;2024-03-08T03:46:28;2.80;;;1.13;;
77722;SDS011;67811;42.656;23.394;2024-03-08T03:50:33;1.83;;;0.90;;
77722;SDS011;67811;42.656;23.394;2024-03-08T03:54:38;1.80;;;0.80;;
77722;SDS011;67811;42.656;23.394;2024-03-08T03:58:44;1.47;;;0.90;;
77722;SDS011;67811;42.656;23.394;2024-03-08T04:02:49;2.80;;;0.90;;
77722;SDS011;67811;42.656;23.394;2024-03-08T04:06:54;2.30;;;1.00;;
77722;SDS011;67811;42.656;23.394;2024-03-08T04:11:00;2.07;;;1.10;;
77722;SDS011;67811;42.656;23.394;2024-03-08T04:15:06;1.85;;;0.82;;
77722;SDS011;67811;42.656;23.394;2024-03-08T04:19:11;2.08;;;1.00;;
77722;SDS011;67811;42.656;23.394;2024-03-08T04:23:16;2.10;;;1.30;;
77722;SDS011;67811;42.656;23.394;2024-03-08T04:27:22;1.37;;;0.77;;
77722;SDS011;67811;42.656;23.394;2024-03-08T04:31:27;2.27;;;1.10;;
77722;SDS011;67811;42.656;23.394;2024-03-08T04:35:32;3.27;;;1.10;;
77722;SDS011;67811;42.656;23.394;2024-03-08T04:39:38;1.83;;;0.90;;
77722;SDS011;67811;42.656;23.394;2024-03-08T04:43:43;1.67;;;0.77;;
77722;SDS011;67811;42.656;23.394;2024-03-08T04:47:48;3.40;;;1.20;;
77722;SDS011;67811;42.656;23.394;2024-03-08T04:51:53;2.07;;;1.33;;
77722;SDS011;67811;42.656;23.394;2024-03-08T04:55:59;1.87;;;1.10;;
77722;SDS011;67811;42.656;23.394;2024-03-08T05:00:04;2.67;;;0.90;;
77722;SDS011;67811;42.656;23.394;2024-03-08T05:04:10;2.20;;;1.00;;
77722;SDS011;67811;42.656;23.394;2024-03-08T05:08:15;3.50;;;1.57;;
77722;SDS011;67811;42.656;23.394;2024-03-08T05:12:20;3.40;;;1.40;;
77722;SDS011;67811;42.656;23.394;2024-03-08T05:16:26;4.83;;;2.37;;
77722;SDS011;67811;42.656;23.394;2024-03-08T05:20:31;5.43;;;2.03;;
77722;SDS011;67811;42.656;23.394;2024-03-08T05:24:36;4.30;;;1.80;;
77722;SDS011;67811;42.656;23.394;2024-03-08T05:28:42;5.27;;;2.63;;
77722;SDS011;67811;42.656;23.394;2024-03-08T05:32:47;5.20;;;2.30;;
77722;SDS011;67811;42.656;23.394;2024-03-08T05:36:52;5.90;;;2.93;;
77722;SDS011;67811;42.656;23.394;2024-03-08T05:40:58;7.20;;;3.10;;
77722;SDS011;67811;42.656;23.394;2024-03-08T05:45:03;6.17;;;2.87;;
77722;SDS011;67811;42.656;23.394;2024-03-08T05:49:09;7.65;;;2.95;;
77722;SDS011;67811;42.656;23.394;2024-03-08T05:53:14;5.40;;;2.77;;
77722;SDS011;67811;42.656;23.394;2024-03-08T05:57:20;9.50;;;5.00;;
77722;SDS011;67811;42.656;23.394;2024-03-08T06:01:25;8.10;;;4.20;;
77722;SDS011;67811;42.656;23.394;2024-03-08T06:05:31;6.57;;;3.83;;
77722;SDS011;67811;42.656;23.394;2024-03-08T06:09:36;8.07;;;4.50;;
77722;SDS011;67811;42.656;23.394;2024-03-08T06:13:41;11.00;;;5.97;;
77722;SDS011;67811;42.656;23.394;2024-03-08T06:17:47;5.03;;;2.50;;
77722;SDS011;67811;42.656;23.394;2024-03-08T06:21:52;7.23;;;3.13;;
77722;SDS011;67811;42.656;23.394;2024-03-08T06:25:57;5.47;;;2.87;;
77722;SDS011;67811;42.656;23.394;2024-03-08T06:30:03;6.17;;;2.80;;
77722;SDS011;67811;42.656;23.394;2024-03-08T06:34:08;8.20;;;3.80;;
77722;SDS011;67811;42.656;23.394;2024-03-08T06:38:13;6.63;;;3.23;;
77722;SDS011;67811;42.656;23.394;2024-03-08T06:42:19;8.77;;;3.63;;
77722;SDS011;67811;42.656;23.394;2024-03-08T06:46:24;7.47;;;4.10;;
77722;SDS011;67811;42.656;23.394;2024-03-08T06:50:29;7.23;;;3.27;;
77722;SDS011;67811;42.656;23.394;2024-03-08T06:54:35;8.13;;;3.23;;
77722;SDS011;67811;42.656;23.394;2024-03-08T06:58:40;9.30;;;4.20;;
77722;SDS011;67811;42.656;23.394;2024-03-08T07:02:46;8.07;;;3.70;;
77722;SDS011;67811;42.656;23.394;2024-03-08T07:06:51;7.17;;;3.50;;
77722;SDS011;67811;42.656;23.394;2024-03-08T07:10:57;7.10;;;3.67;;
77722;SDS011;67811;42.656;23.394;2024-03-08T07:15:02;6.70;;;2.93;;
77722;SDS011;67811;42.656;23.394;2024-03-08T07:19:07;5.63;;;2.85;;
77722;SDS011;67811;42.656;23.394;2024-03-08T07:23:13;6.77;;;3.53;;
77722;SDS011;67811;42.656;23.394;2024-03-08T07:27:18;5.73;;;3.00;;
77722;SDS011;67811;42.656;23.394;2024-03-08T07:31:23;4.77;;;2.43;;
77722;SDS011;67811;42.656;23.394;2024-03-08T07:35:29;5.00;;;2.23;;
77722;SDS011;67811;42.656;23.394;2024-03-08T07:39:34;6.05;;;2.58;;
77722;SDS011;67811;42.656;23.394;2024-03-08T07:43:40;4.40;;;2.10;;
77722;SDS011;67811;42.656;23.394;2024-03-08T07:47:45;4.60;;;2.40;;
77722;SDS011;67811;42.656;23.394;2024-03-08T07:51:50;5.83;;;2.40;;
77722;SDS011;67811;42.656;23.394;2024-03-08T07:55:56;5.17;;;2.47;;
77722;SDS011;67811;42.656;23.394;2024-03-08T08:00:01;5.17;;;2.80;;
77722;SDS011;67811;42.656;23.394;2024-03-08T08:04:06;5.33;;;2.43;;
77722;SDS011;67811;42.656;23.394;2024-03-08T08:08:11;4.40;;;2.20;;
77722;SDS011;67811;42.656;23.394;2024-03-08T08:12:17;6.03;;;3.27;;
77722;SDS011;67811;42.656;23.394;2024-03-08T08:16:25;7.60;;;3.70;;
77722;SDS011;67811;42.656;23.394;2024-03-08T08:20:30;6.25;;;2.83;;
77722;SDS011;67811;42.656;23.394;2024-03-08T08:24:35;6.17;;;3.37;;
77722;SDS011;67811;42.656;23.394;2024-03-08T08:28:41;6.80;;;3.13;;
77722;SDS011;67811;42.656;23.394;2024-03-08T08:32:46;6.37;;;3.87;;
77722;SDS011;67811;42.656;23.394;2024-03-08T08:36:52;8.33;;;3.40;;
77722;SDS011;67811;42.656;23.394;2024-03-08T08:40:57;6.63;;;3.05;;
77722;SDS011;67811;42.656;23.394;2024-03-08T08:45:03;7.33;;;2.87;;
77722;SDS011;67811;42.656;23.394;2024-03-08T08:49:10;6.13;;;2.83;;
77722;SDS011;67811;42.656;23.394;2024-03-08T08:53:15;4.90;;;2.40;;
77722;SDS011;67811;42.656;23.394;2024-03-08T08:57:20;7.33;;;2.90;;
77722;SDS011;67811;42.656;23.394;2024-03-08T09:01:25;6.27;;;2.67;;
77722;SDS011;67811;42.656;23.394;2024-03-08T09:05:31;5.73;;;2.53;;
77722;SDS011;67811;42.656;23.394;2024-03-08T09:09:36;5.13;;;2.17;;
77722;SDS011;67811;42.656;23.394;2024-03-08T09:13:44;6.50;;;2.90;;
77722;SDS011;67811;42.656;23.394;2024-03-08T09:17:49;4.30;;;2.72;;
77722;SDS011;67811;42.656;23.394;2024-03-08T09:21:55;3.80;;;2.27;;
77722;SDS011;67811;42.656;23.394;2024-03-08T09:26:00;4.93;;;2.60;;
77722;SDS011;67811;42.656;23.394;2024-03-08T09:30:05;4.50;;;2.17;;
77722;SDS011;67811;42.656;23.394;2024-03-08T09:34:11;4.22;;;1.83;;
77722;SDS011;67811;42.656;23.394;2024-03-08T09:38:16;4.60;;;1.90;;
77722;SDS011;67811;42.656;23.394;2024-03-08T09:42:22;4.27;;;2.10;;
77722;SDS011;67811;42.656;23.394;2024-03-08T09:46:27;5.33;;;2.10;;
77722;SDS011;67811;42.656;23.394;2024-03-08T09:50:32;6.40;;;1.93;;
77722;SDS011;67811;42.656;23.394;2024-03-08T09:54:38;3.97;;;1.87;;
77722;SDS011;67811;42.656;23.394;2024-03-08T09:58:43;5.97;;;1.98;;
77722;SDS011;67811;42.656;23.394;2024-03-08T10:02:49;3.77;;;1.53;;
77722;SDS011;67811;42.656;23.394;2024-03-08T10:06:55;19.08;;;5.10;;
77722;SDS011;67811;42.656;23.394;2024-03-08T10:11:00;5.70;;;2.53;;
77722;SDS011;67811;42.656;23.394;2024-03-08T10:15:07;4.75;;;1.70;;
77722;SDS011;67811;42.656;23.394;2024-03-08T10:19:13;4.65;;;1.77;;
77722;SDS011;67811;42.656;23.394;2024-03-08T10:23:18;4.20;;;1.70;;
77722;SDS011;67811;42.656;23.394;2024-03-08T10:27:23;13.47;;;3.20;;
77722;SDS011;67811;42.656;23.394;2024-03-08T10:31:29;4.33;;;2.30;;
77722;SDS011;67811;42.656;23.394;2024-03-08T10:35:34;7.20;;;2.00;;
77722;SDS011;67811;42.656;23.394;2024-03-08T10:39:39;2.10;;;1.23;;
77722;SDS011;67811;42.656;23.394;2024-03-08T10:47:57;3.00;;;1.40;;
77722;SDS011;67811;42.656;23.394;2024-03-08T10:52:13;3.83;;;1.67;;
77722;SDS011;67811;42.656;23.394;2024-03-08T10:56:21;3.75;;;1.38;;
77722;SDS011;67811;42.656;23.394;2024-03-08T11:00:26;3.07;;;1.57;;
77722;SDS011;67811;42.656;23.394;2024-03-08T11:04:32;3.20;;;1.85;;
77722;SDS011;67811;42.656;23.394;2024-03-08T11:08:37;9.03;;;2.57;;
77722;SDS011;67811;42.656;23.394;2024-03-08T11:12:42;6.57;;;2.00;;
77722;SDS011;67811;42.656;23.394;2024-03-08T11:16:47;3.97;;;1.97;;
77722;SDS011;67811;42.656;23.394;2024-03-08T11:20:56;7.63;;;2.20;;
77722;SDS011;67811;42.656;23.394;2024-03-08T11:25:05;3.40;;;1.73;;
77722;SDS011;67811;42.656;23.394;2024-03-08T11:33:37;3.13;;;1.73;;
77722;SDS011;67811;42.656;23.394;2024-03-08T11:37:46;1.95;;;1.00;;
77722;SDS011;67811;42.656;23.394;2024-03-08T11:41:51;4.90;;;1.73;;
77722;SDS011;67811;42.656;23.394;2024-03-08T11:46:09;5.60;;;2.00;;
77722;SDS011;67811;42.656;23.394;2024-03-08T11:50:18;3.30;;;1.60;;
77722;SDS011;67811;42.656;23.394;2024-03-08T11:54:24;5.50;;;1.70;;
77722;SDS011;67811;42.656;23.394;2024-03-08T11:58:29;3.97;;;1.65;;
77722;SDS011;67811;42.656;23.394;2024-03-08T12:02:34;4.30;;;1.93;;
77722;SDS011;67811;42.656;23.394;2024-03-08T12:06:40;3.90;;;1.67;;
77722;SDS011;67811;42.656;23.394;2024-03-08T12:10:46;3.97;;;1.27;;
77722;SDS011;67811;42.656;23.394;2024-03-08T12:14:51;18.67;;;2.80;;
77722;SDS011;67811;42.656;23.394;2024-03-08T12:18:56;4.33;;;1.50;;
77722;SDS011;67811;42.656;23.394;2024-03-08T12:23:02;3.27;;;1.37;;
77722;SDS011;67811;42.656;23.394;2024-03-08T12:27:19;15.23;;;3.50;;
77722;SDS011;67811;42.656;23.394;2024-03-08T12:31:25;10.95;;;2.28;;
77722;SDS011;67811;42.656;23.394;2024-03-08T12:35:30;4.40;;;1.60;;
77722;SDS011;67811;42.656;23.394;2024-03-08T12:39:36;6.87;;;2.23;;
77722;SDS011;67811;42.656;23.394;2024-03-08T12:43:41;12.77;;;2.80;;
77722;SDS011;67811;42.656;23.394;2024-03-08T12:47:46;4.37;;;1.60;;
77722;SDS011;67811;42.656;23.394;2024-03-08T12:51:52;3.23;;;1.37;;
77722;SDS011;67811;42.656;23.394;2024-03-08T12:55:57;4.13;;;1.73;;
77722;SDS011;67811;42.656;23.394;2024-03-08T13:00:02;7.67;;;2.50;;
77722;SDS011;67811;42.656;23.394;2024-03-08T13:04:09;3.33;;;1.40;;
77722;SDS011;67811;42.656;23.394;2024-03-08T13:08:14;2.33;;;1.17;;
77722;SDS011;67811;42.656;23.394;2024-03-08T13:12:20;2.80;;;1.40;;
77722;SDS011;67811;42.656;23.394;2024-03-08T13:16:26;2.80;;;1.30;;
77722;SDS011;67811;42.656;23.394;2024-03-08T13:20:31;4.07;;;1.73;;
77722;SDS011;67811;42.656;23.394;2024-03-08T13:24:37;3.97;;;1.57;;
77722;SDS011;67811;42.656;23.394;2024-03-08T13:32:47;3.78;;;1.33;;
77722;SDS011;67811;42.656;23.394;2024-03-08T13:36:52;3.60;;;1.50;;
77722;SDS011;67811;42.656;23.394;2024-03-08T13:40:58;2.63;;;1.67;;
77722;SDS011;67811;42.656;23.394;2024-03-08T13:45:05;3.38;;;1.55;;
77722;SDS011;67811;42.656;23.394;2024-03-08T13:49:11;7.70;;;2.10;;
77722;SDS011;67811;42.656;23.394;2024-03-08T13:53:16;2.70;;;1.30;;
77722;SDS011;67811;42.656;23.394;2024-03-08T13:57:21;2.90;;;1.30;;
77722;SDS011;67811;42.656;23.394;2024-03-08T14:01:27;3.47;;;1.63;;
77722;SDS011;67811;42.656;23.394;2024-03-08T14:05:32;3.10;;;1.67;;
77722;SDS011;67811;42.656;23.394;2024-03-08T14:09:37;4.00;;;1.77;;
77722;SDS011;67811;42.656;23.394;2024-03-08T14:13:43;3.63;;;1.70;;
77722;SDS011;67811;42.656;23.394;2024-03-08T14:17:54;5.80;;;1.70;;
77722;SDS011;67811;42.656;23.394;2024-03-08T14:22:00;2.97;;;1.65;;
77722;SDS011;67811;42.656;23.394;2024-03-08T14:26:06;3.20;;;1.50;;
77722;SDS011;67811;42.656;23.394;2024-03-08T14:30:12;2.80;;;1.63;;
77722;SDS011;67811;42.656;23.394;2024-03-08T14:34:17;3.53;;;1.73;;
77722;SDS011;67811;42.656;23.394;2024-03-08T14:38:23;3.50;;;1.80;;
77722;SDS011;67811;42.656;23.394;2024-03-08T14:42:28;3.60;;;1.77;;
77722;SDS011;67811;42.656;23.394;2024-03-08T14:46:33;4.57;;;1.80;;
77722;SDS011;67811;42.656;23.394;2024-03-08T14:50:39;3.63;;;1.90;;
77722;SDS011;67811;42.656;23.394;2024-03-08T14:54:44;3.20;;;1.53;;
77722;SDS011;67811;42.656;23.394;2024-03-08T14:58:49;3.10;;;1.37;;
77722;SDS011;67811;42.656;23.394;2024-03-08T15:02:55;2.90;;;1.43;;
77722;SDS011;67811;42.656;23.394;2024-03-08T15:07:01;4.18;;;1.30;;
77722;SDS011;67811;42.656;23.394;2024-03-08T15:11:07;3.40;;;1.67;;
77722;SDS011;67811;42.656;23.394;2024-03-08T15:15:12;4.10;;;1.70;;
77722;SDS011;67811;42.656;23.394;2024-03-08T15:19:18;3.97;;;1.80;;
77722;SDS011;67811;42.656;23.394;2024-03-08T15:23:23;3.67;;;1.80;;
77722;SDS011;67811;42.656;23.394;2024-03-08T15:27:28;4.23;;;2.20;;
77722;SDS011;67811;42.656;23.394;2024-03-08T15:31:34;3.90;;;1.93;;
77722;SDS011;67811;42.656;23.394;2024-03-08T15:35:39;4.43;;;2.17;;
77722;SDS011;67811;42.656;23.394;2024-03-08T15:39:44;5.47;;;2.43;;
77722;SDS011;67811;42.656;23.394;2024-03-08T15:43:49;6.70;;;2.50;;
77722;SDS011;67811;42.656;23.394;2024-03-08T15:47:55;6.03;;;3.13;;
77722;SDS011;67811;42.656;23.394;2024-03-08T15:52:00;4.93;;;2.37;;
77722;SDS011;67811;42.656;23.394;2024-03-08T15:56:06;6.63;;;3.13;;
77722;SDS011;67811;42.656;23.394;2024-03-08T16:00:11;4.70;;;2.10;;
77722;SDS011;67811;42.656;23.394;2024-03-08T16:04:17;4.40;;;2.15;;
77722;SDS011;67811;42.656;23.394;2024-03-08T16:08:22;4.80;;;2.30;;
77722;SDS011;67811;42.656;23.394;2024-03-08T16:12:28;4.40;;;2.13;;
77722;SDS011;67811;42.656;23.394;2024-03-08T16:16:33;5.20;;;2.23;;
77722;SDS011;67811;42.656;23.394;2024-03-08T16:20:39;4.67;;;2.17;;
77722;SDS011;67811;42.656;23.394;2024-03-08T16:24:45;6.18;;;2.55;;
77722;SDS011;67811;42.656;23.394;2024-03-08T16:28:50;5.17;;;2.53;;
77722;SDS011;67811;42.656;23.394;2024-03-08T16:32:55;6.00;;;2.60;;
77722;SDS011;67811;42.656;23.394;2024-03-08T16:37:00;7.23;;;3.53;;
77722;SDS011;67811;42.656;23.394;2024-03-08T16:41:06;6.23;;;2.80;;
77722;SDS011;67811;42.656;23.394;2024-03-08T16:45:11;7.43;;;3.30;;
77722;SDS011;67811;42.656;23.394;2024-03-08T16:49:17;10.23;;;4.65;;
77722;SDS011;67811;42.656;23.394;2024-03-08T16:53:22;7.80;;;3.07;;
77722;SDS011;67811;42.656;23.394;2024-03-08T16:57:28;6.40;;;3.07;;
77722;SDS011;67811;42.656;23.394;2024-03-08T17:01:33;7.20;;;3.60;;
77722;SDS011;67811;42.656;23.394;2024-03-08T17:05:38;8.73;;;4.17;;
77722;SDS011;67811;42.656;23.394;2024-03-08T17:09:44;6.57;;;3.23;;
77722;SDS011;67811;42.656;23.394;2024-03-08T17:13:49;6.47;;;3.47;;
77722;SDS011;67811;42.656;23.394;2024-03-08T17:17:55;7.77;;;3.47;;
77722;SDS011;67811;42.656;23.394;2024-03-08T17:22:01;6.20;;;3.33;;
77722;SDS011;67811;42.656;23.394;2024-03-08T17:26:07;10.20;;;4.47;;
77722;SDS011;67811;42.656;23.394;2024-03-08T17:30:12;5.53;;;3.07;;
77722;SDS011;67811;42.656;23.394;2024-03-08T17:34:17;5.03;;;2.20;;
77722;SDS011;67811;42.656;23.394;2024-03-08T17:38:23;5.20;;;2.10;;
77722;SDS011;67811;42.656;23.394;2024-03-08T17:42:28;3.90;;;1.60;;
77722;SDS011;67811;42.656;23.394;2024-03-08T17:46:33;5.80;;;2.50;;
77722;SDS011;67811;42.656;23.394;2024-03-08T17:50:39;5.50;;;2.70;;
77722;SDS011;67811;42.656;23.394;2024-03-08T17:54:45;13.13;;;3.08;;
77722;SDS011;67811;42.656;23.394;2024-03-08T17:58:51;5.05;;;2.92;;
77722;SDS011;67811;42.656;23.394;2024-03-08T18:02:56;3.97;;;1.87;;
77722;SDS011;67811;42.656;23.394;2024-03-08T18:11:25;5.88;;;3.33;;
77722;SDS011;67811;42.656;23.394;2024-03-08T18:15:30;5.27;;;2.23;;
77722;SDS011;67811;42.656;23.394;2024-03-08T18:19:36;4.60;;;2.20;;
77722;SDS011;67811;42.656;23.394;2024-03-08T18:23:41;3.77;;;2.17;;
77722;SDS011;67811;42.656;23.394;2024-03-08T18:27:46;5.73;;;3.03;;
77722;SDS011;67811;42.656;23.394;2024-03-08T18:31:51;3.43;;;2.00;;
77722;SDS011;67811;42.656;23.394;2024-03-08T18:35:57;6.90;;;3.30;;
77722;SDS011;67811;42.656;23.394;2024-03-08T18:40:02;6.33;;;2.90;;
77722;SDS011;67811;42.656;23.394;2024-03-08T18:44:07;5.47;;;2.63;;
77722;SDS011;67811;42.656;23.394;2024-03-08T18:48:13;5.40;;;2.50;;
77722;SDS011;67811;42.656;23.394;2024-03-08T18:52:18;5.03;;;3.07;;
77722;SDS011;67811;42.656;23.394;2024-03-08T18:56:23;8.00;;;3.30;;
77722;SDS011;67811;42.656;23.394;2024-03-08T19:00:29;7.50;;;3.53;;
77722;SDS011;67811;42.656;23.394;2024-03-08T19:04:34;5.05;;;3.15;;
77722;SDS011;67811;42.656;23.394;2024-03-08T19:08:39;6.53;;;3.63;;
77722;SDS011;67811;42.656;23.394;2024-03-08T19:12:48;8.00;;;2.93;;
77722;SDS011;67811;42.656;23.394;2024-03-08T19:16:56;8.63;;;3.10;;
77722;SDS011;67811;42.656;23.394;2024-03-08T19:21:01;8.63;;;5.40;;
77722;SDS011;67811;42.656;23.394;2024-03-08T19:25:06;7.03;;;3.87;;
77722;SDS011;67811;42.656;23.394;2024-03-08T19:29:12;7.70;;;3.92;;
77722;SDS011;67811;42.656;23.394;2024-03-08T19:33:17;10.20;;;2.63;;
77722;SDS011;67811;42.656;23.394;2024-03-08T19:37:22;7.70;;;3.27;;
77722;SDS011;67811;42.656;23.394;2024-03-08T19:41:28;7.57;;;3.63;;
77722;SDS011;67811;42.656;23.394;2024-03-08T19:45:33;7.50;;;5.13;;
77722;SDS011;67811;42.656;23.394;2024-03-08T19:49:38;7.33;;;3.67;;
77722;SDS011;67811;42.656;23.394;2024-03-08T19:53:44;7.33;;;3.20;;
77722;SDS011;67811;42.656;23.394;2024-03-08T19:57:49;4.40;;;2.30;;
77722;SDS011;67811;42.656;23.394;2024-03-08T20:01:55;6.38;;;3.33;;
77722;SDS011;67811;42.656;23.394;2024-03-08T20:06:00;6.07;;;2.93;;
77722;SDS011;67811;42.656;23.394;2024-03-08T20:10:05;5.60;;;3.23;;
77722;SDS011;67811;42.656;23.394;2024-03-08T20:14:11;9.15;;;3.67;;
77722;SDS011;67811;42.656;23.394;2024-03-08T20:18:17;8.83;;;4.30;;
77722;SDS011;67811;42.656;23.394;2024-03-08T20:22:22;7.60;;;4.50;;
77722;SDS011;67811;42.656;23.394;2024-03-08T20:26:27;7.07;;;3.43;;
77722;SDS011;67811;42.656;23.394;2024-03-08T20:30:32;8.33;;;3.87;;
77722;SDS011;67811;42.656;23.394;2024-03-08T20:34:38;6.90;;;3.70;;
77722;SDS011;67811;42.656;23.394;2024-03-08T20:38:43;5.50;;;3.63;;
77722;SDS011;67811;42.656;23.394;2024-03-08T20:42:52;7.20;;;3.80;;
77722;SDS011;67811;42.656;23.394;2024-03-08T20:46:58;9.73;;;4.60;;
77722;SDS011;67811;42.656;23.394;2024-03-08T20:51:03;8.03;;;3.37;;
77722;SDS011;67811;42.656;23.394;2024-03-08T20:55:09;10.10;;;4.70;;
77722;SDS011;67811;42.656;23.394;2024-03-08T20:59:14;11.85;;;5.68;;
77722;SDS011;67811;42.656;23.394;2024-03-08T21:03:20;10.60;;;4.87;;
77722;SDS011;67811;42.656;23.394;2024-03-08T21:07:25;11.60;;;5.47;;
77722;SDS011;67811;42.656;23.394;2024-03-08T21:11:30;8.73;;;4.27;;
77722;SDS011;67811;42.656;23.394;2024-03-08T21:15:36;10.37;;;4.67;;
77722;SDS011;67811;42.656;23.394;2024-03-08T21:19:41;10.77;;;4.63;;
77722;SDS011;67811;42.656;23.394;2024-03-08T21:23:47;8.00;;;3.63;;
77722;SDS011;67811;42.656;23.394;2024-03-08T21:27:52;8.80;;;4.97;;
77722;SDS011;67811;42.656;23.394;2024-03-08T21:32:00;9.20;;;5.03;;
77722;SDS011;67811;42.656;23.394;2024-03-08T21:36:05;9.15;;;4.90;;
77722;SDS011;67811;42.656;23.394;2024-03-08T21:40:11;8.55;;;4.20;;
77722;SDS011;67811;42.656;23.394;2024-03-08T21:44:16;11.98;;;4.88;;
77722;SDS011;67811;42.656;23.394;2024-03-08T21:48:22;9.07;;;4.83;;
77722;SDS011;67811;42.656;23.394;2024-03-08T21:52:27;9.63;;;4.97;;
77722;SDS011;67811;42.656;23.394;2024-03-08T21:56:33;11.13;;;5.22;;
77722;SDS011;67811;42.656;23.394;2024-03-08T22:00:38;8.70;;;4.90;;
77722;SDS011;67811;42.656;23.394;2024-03-08T22:04:44;11.75;;;4.95;;
77722;SDS011;67811;42.656;23.394;2024-03-08T22:08:49;9.77;;;4.70;;
77722;SDS011;67811;42.656;23.394;2024-03-08T22:12:55;9.40;;;4.30;;
77722;SDS011;67811;42.656;23.394;2024-03-08T22:17:00;9.73;;;4.20;;
77722;SDS011;67811;42.656;23.394;2024-03-08T22:21:06;11.17;;;5.40;;
77722;SDS011;67811;42.656;23.394;2024-03-08T22:25:11;9.67;;;4.83;;
77722;SDS011;67811;42.656;23.394;2024-03-08T22:29:16;9.13;;;4.73;;
77722;SDS011;67811;42.656;23.394;2024-03-08T22:33:22;48.73;;;19.50;;
77722;SDS011;67811;42.656;23.394;2024-03-08T22:37:27;18.00;;;8.07;;
77722;SDS011;67811;42.656;23.394;2024-03-08T22:41:32;11.43;;;5.83;;
77722;SDS011;67811;42.656;23.394;2024-03-08T22:45:37;9.97;;;4.87;;
77722;SDS011;67811;42.656;23.394;2024-03-08T22:49:43;10.17;;;6.00;;
77722;SDS011;67811;42.656;23.394;2024-03-08T22:53:48;11.83;;;5.70;;
77722;SDS011;67811;42.656;23.394;2024-03-08T22:57:53;9.33;;;5.60;;
77722;SDS011;67811;42.656;23.394;2024-03-08T23:01:58;11.90;;;6.27;;
77722;SDS011;67811;42.656;23.394;2024-03-08T23:06:04;25.37;;;16.33;;
77722;SDS011;67811;42.656;23.394;2024-03-08T23:10:09;20.13;;;11.27;;
77722;SDS011;67811;42.656;23.394;2024-03-08T23:14:15;10.90;;;7.30;;
77722;SDS011;67811;42.656;23.394;2024-03-08T23:18:20;11.10;;;5.23;;
77722;SDS011;67811;42.656;23.394;2024-03-08T23:22:25;10.60;;;5.00;;
77722;SDS011;67811;42.656;23.394;2024-03-08T23:26:31;12.03;;;4.63;;
77722;SDS011;67811;42.656;23.394;2024-03-08T23:30:36;8.03;;;4.23;;
77722;SDS011;67811;42.656;23.394;2024-03-08T23:34:42;10.27;;;4.72;;
77722;SDS011;67811;42.656;23.394;2024-03-08T23:38:47;12.03;;;5.63;;
77722;SDS011;67811;42.656;23.394;2024-03-08T23:42:52;9.73;;;5.90;;
77722;SDS011;67811;42.656;23.394;2024-03-08T23:46:57;11.00;;;5.67;;
77722;SDS011;67811;42.656;23.394;2024-03-08T23:51:03;11.03;;;5.07;;
77722;SDS011;67811;42.656;23.394;2024-03-08T23:55:08;10.13;;;4.93;;
77722;SDS011;67811;42.656;23.394;2024-03-08T23:59:15;15.88;;;8.18;;
